Time;durP1;ratioP1;P1;durP2;ratioP2;P2;SDS_P1;SDS_P2;PMS_P1;PMS_P2;Temp;Humidity;BMP_temperature;BMP_pressure;BME280_temperature;BME280_humidity;BME280_pressure;Samples;Min_cycle;Max_cycle;Signal;HPM_P1;HPM_P2
2021/04/28 00:00:43;;;;;;;16.83;11.23;;;6.00;99.90;;;;;;5064962;28;20297;-80
2021/04/28 00:03:11;;;;;;;18.10;12.13;;;6.00;99.90;;;;;;5083139;28;20167;-80
2021/04/28 00:05:37;;;;;;;14.90;10.87;;;5.90;99.90;;;;;;5082124;28;20595;-80
2021/04/28 00:08:04;;;;;;;15.93;11.00;;;5.90;99.90;;;;;;5082524;28;20253;-80
2021/04/28 00:10:33;;;;;;;16.73;11.00;;;5.80;99.90;;;;;;5064242;28;20214;-80
2021/04/28 00:12:59;;;;;;;16.33;10.23;;;5.70;99.90;;;;;;5082689;28;20203;-80
2021/04/28 00:15:31;;;;;;;18.00;10.73;;;5.60;99.90;;;;;;5082498;28;20194;-80
2021/04/28 00:17:56;;;;;;;17.00;11.90;;;5.60;99.90;;;;;;5064582;28;20208;-80
2021/04/28 00:20:24;;;;;;;17.07;10.93;;;5.60;99.90;;;;;;5082483;28;20207;-80
2021/04/28 00:22:50;;;;;;;14.80;10.77;;;5.60;99.90;;;;;;5064772;28;20213;-80
2021/04/28 00:25:21;;;;;;;15.83;10.90;;;5.50;99.90;;;;;;5083210;28;20178;-80
2021/04/28 00:27:47;;;;;;;20.17;10.40;;;5.50;99.90;;;;;;5079631;28;20276;-80
2021/04/28 00:30:15;;;;;;;18.70;11.00;;;5.40;99.90;;;;;;5078726;28;20289;-80
2021/04/28 00:32:41;;;;;;;15.70;9.90;;;5.40;99.90;;;;;;5064690;28;20173;-80
2021/04/28 00:35:12;;;;;;;17.77;10.63;;;5.40;99.90;;;;;;5069848;28;20205;-80
2021/04/28 00:37:38;;;;;;;19.47;11.63;;;5.40;99.90;;;;;;5087796;28;20254;-80
2021/04/28 00:40:13;;;;;;;17.57;10.20;;;5.40;99.90;;;;;;5088282;28;20698;-80
2021/04/28 00:42:42;;;;;;;14.63;10.40;;;5.30;99.90;;;;;;5070392;28;20264;-80
2021/04/28 00:45:08;;;;;;;20.20;11.50;;;5.20;99.90;;;;;;5089107;28;20256;-80
2021/04/28 00:47:34;;;;;;;19.27;11.13;;;5.20;99.90;;;;;;5088167;28;20245;-80
2021/04/28 00:50:00;;;;;;;16.10;10.17;;;5.20;99.90;;;;;;5070493;28;20213;-80
2021/04/28 00:52:26;;;;;;;15.10;11.37;;;5.10;99.90;;;;;;5089031;28;20180;-80
2021/04/28 00:54:53;;;;;;;17.67;10.70;;;5.10;99.90;;;;;;5088357;28;20208;-80
2021/04/28 00:57:19;;;;;;;17.80;12.53;;;5.20;99.90;;;;;;5071316;28;20176;-80
2021/04/28 00:59:45;;;;;;;17.93;10.53;;;5.30;99.90;;;;;;5088905;28;20188;-80
2021/04/28 01:02:11;;;;;;;18.30;11.97;;;5.20;99.90;;;;;;5089476;28;20172;-80
2021/04/28 01:04:37;;;;;;;15.30;10.77;;;5.10;99.90;;;;;;5088479;28;20669;-80
2021/04/28 01:07:07;;;;;;;16.03;10.83;;;5.00;99.90;;;;;;5089868;28;20232;-80
2021/04/28 01:09:38;;;;;;;16.03;11.20;;;5.00;99.90;;;;;;5089145;28;20722;-80
2021/04/28 01:12:06;;;;;;;16.43;11.20;;;5.00;99.90;;;;;;5088365;28;20235;-80
2021/04/28 01:14:32;;;;;;;18.97;11.53;;;4.90;99.90;;;;;;5087696;28;20212;-80
2021/04/28 01:16:59;;;;;;;15.93;11.70;;;4.80;99.90;;;;;;5083847;28;20193;-80
2021/04/28 01:19:27;;;;;;;16.63;11.30;;;4.80;99.90;;;;;;5083272;28;20199;-80
2021/04/28 01:21:52;;;;;;;15.60;10.53;;;4.80;99.90;;;;;;5085000;28;20547;-80
2021/04/28 01:24:18;;;;;;;18.77;11.73;;;4.80;99.90;;;;;;5084281;28;20228;-80
2021/04/28 01:26:50;;;;;;;23.27;12.00;;;4.80;99.90;;;;;;5083998;28;20175;-80
2021/04/28 01:29:20;;;;;;;21.57;11.70;;;4.80;99.90;;;;;;5083876;28;20188;-80
2021/04/28 01:31:47;;;;;;;17.10;11.53;;;4.80;99.90;;;;;;5065893;28;20184;-80
2021/04/28 01:34:14;;;;;;;17.07;11.60;;;4.80;99.90;;;;;;5083912;28;20180;-80
2021/04/28 01:36:41;;;;;;;19.93;12.07;;;4.80;99.90;;;;;;5083675;28;20195;-80
2021/04/28 01:39:16;;;;;;;18.50;11.37;;;4.70;99.90;;;;;;5065666;28;20611;-80
2021/04/28 01:41:45;;;;;;;17.87;11.27;;;4.60;99.90;;;;;;5065157;28;20265;-80
2021/04/28 01:44:15;;;;;;;20.20;13.47;;;4.60;99.90;;;;;;5064899;28;20232;-80
2021/04/28 01:46:41;;;;;;;17.13;11.87;;;4.50;99.90;;;;;;5065531;28;20412;-80
2021/04/28 01:49:07;;;;;;;20.70;12.23;;;4.50;99.90;;;;;;5065486;28;20269;-80
2021/04/28 01:51:34;;;;;;;18.23;12.03;;;4.50;99.90;;;;;;5069175;28;20468;-80
2021/04/28 01:54:02;;;;;;;22.13;12.77;;;4.50;99.90;;;;;;5088720;28;20239;-80
2021/04/28 01:56:29;;;;;;;20.27;10.50;;;4.40;99.90;;;;;;5084757;28;20451;-79
2021/04/28 01:58:56;;;;;;;17.47;11.97;;;4.40;99.90;;;;;;5066151;28;20246;-80
2021/04/28 02:01:23;;;;;;;19.60;12.30;;;4.40;99.90;;;;;;5083498;28;20457;-80
2021/04/28 02:03:49;;;;;;;18.30;13.27;;;4.50;99.90;;;;;;5083882;28;20407;-80
2021/04/28 02:06:15;;;;;;;23.30;13.40;;;4.40;99.90;;;;;;5064980;28;20472;-80
2021/04/28 02:08:41;;;;;;;19.73;13.03;;;4.40;99.90;;;;;;5064979;28;20447;-80
2021/04/28 02:11:07;;;;;;;18.70;12.60;;;4.40;99.90;;;;;;5083182;28;20187;-80
2021/04/28 02:13:37;;;;;;;19.07;13.50;;;4.40;99.90;;;;;;5083288;28;20200;-80
2021/04/28 02:16:03;;;;;;;18.00;12.23;;;4.40;99.90;;;;;;5083147;28;20185;-80
2021/04/28 02:18:29;;;;;;;17.93;13.13;;;4.40;99.90;;;;;;5083165;28;20467;-80
2021/04/28 02:21:00;;;;;;;17.13;12.90;;;4.40;99.90;;;;;;5064502;28;20466;-80
2021/04/28 02:23:26;;;;;;;18.20;12.70;;;4.40;99.90;;;;;;5065153;28;20264;-80
2021/04/28 02:25:55;;;;;;;17.77;12.77;;;4.40;99.90;;;;;;5064703;28;20407;-80
2021/04/28 02:28:20;;;;;;;19.73;13.60;;;4.40;99.90;;;;;;5083269;28;20507;-80
2021/04/28 02:30:46;;;;;;;16.50;11.77;;;4.50;99.90;;;;;;5082654;28;20443;-80
2021/04/28 02:33:12;;;;;;;22.07;13.33;;;4.50;99.90;;;;;;5083569;28;20172;-80
2021/04/28 02:35:40;;;;;;;21.60;13.30;;;4.50;99.90;;;;;;5083201;28;20736;-79
2021/04/28 02:38:12;;;;;;;19.50;13.73;;;4.60;99.90;;;;;;5082990;28;20769;-80
2021/04/28 02:40:39;;;;;;;18.20;13.30;;;4.50;99.90;;;;;;5065353;28;20433;-80
2021/04/28 02:43:05;;;;;;;21.53;14.23;;;4.50;99.90;;;;;;5083398;28;20901;-80
2021/04/28 02:45:31;;;;;;;18.57;13.43;;;4.40;99.90;;;;;;5082763;28;20413;-80
2021/04/28 02:47:59;;;;;;;23.60;13.77;;;4.50;99.90;;;;;;5064820;28;20184;-80
2021/04/28 02:50:26;;;;;;;23.20;12.40;;;4.40;99.90;;;;;;5083612;28;20422;-80
2021/04/28 02:52:54;;;;;;;20.23;12.73;;;4.30;99.90;;;;;;5065071;28;20435;-80
2021/04/28 02:55:21;;;;;;;15.60;13.00;;;4.40;99.90;;;;;;5064806;28;20521;-80
2021/04/28 02:57:48;;;;;;;20.60;13.73;;;4.30;99.90;;;;;;5083403;28;20436;-80
2021/04/28 03:00:17;;;;;;;17.10;12.63;;;4.40;99.90;;;;;;5065324;28;20360;-80
2021/04/28 03:02:43;;;;;;;17.93;12.63;;;4.40;99.90;;;;;;5066213;28;20472;-80
2021/04/28 03:05:17;;;;;;;15.27;11.87;;;4.40;99.90;;;;;;5083882;28;20908;-80
2021/04/28 03:07:43;;;;;;;21.30;12.80;;;4.40;99.90;;;;;;5065812;28;20175;-80
2021/04/28 03:10:10;;;;;;;16.50;11.47;;;4.40;99.90;;;;;;5084044;28;20985;-80
2021/04/28 03:12:38;;;;;;;17.47;11.43;;;4.40;99.90;;;;;;5066206;28;20204;-80
2021/04/28 03:15:04;;;;;;;18.53;12.30;;;4.40;99.90;;;;;;5067036;28;20415;-80
2021/04/28 03:17:30;;;;;;;18.77;11.43;;;4.40;99.90;;;;;;5068721;28;20408;-80
2021/04/28 03:19:57;;;;;;;17.03;11.97;;;4.50;99.90;;;;;;5084033;28;20818;-80
2021/04/28 03:22:23;;;;;;;22.90;13.03;;;4.50;99.90;;;;;;5063750;28;20173;-80
2021/04/28 03:24:50;;;;;;;14.97;11.60;;;4.40;99.90;;;;;;5081766;28;20399;-80
2021/04/28 03:27:18;;;;;;;16.87;11.37;;;4.50;99.90;;;;;;5063745;28;20177;-80
2021/04/28 03:29:44;;;;;;;16.47;12.23;;;4.40;99.90;;;;;;5063443;28;20193;-80
2021/04/28 03:32:10;;;;;;;17.80;12.30;;;4.40;99.90;;;;;;5064124;28;20432;-80
2021/04/28 03:34:36;;;;;;;16.27;11.40;;;4.30;99.90;;;;;;5081093;28;20169;-80
2021/04/28 03:37:03;;;;;;;17.70;11.10;;;4.40;99.90;;;;;;5082464;28;20196;-80
2021/04/28 03:39:30;;;;;;;19.30;13.13;;;4.40;99.90;;;;;;5064666;28;20427;-79
2021/04/28 03:41:56;;;;;;;20.93;13.43;;;4.40;99.90;;;;;;5064076;28;20200;-80
2021/04/28 03:44:22;;;;;;;18.03;11.77;;;4.40;99.90;;;;;;5083284;28;20411;-80
2021/04/28 03:46:48;;;;;;;17.70;11.70;;;4.40;99.90;;;;;;5082840;28;20223;-80
2021/04/28 03:49:17;;;;;;;16.70;11.73;;;4.40;99.90;;;;;;5083233;28;20427;-80
2021/04/28 03:51:44;;;;;;;17.33;11.90;;;4.30;99.90;;;;;;5065045;28;20184;-80
2021/04/28 03:54:09;;;;;;;19.87;12.17;;;4.40;99.90;;;;;;5065026;28;20423;-80
2021/04/28 03:56:35;;;;;;;20.97;12.27;;;4.40;99.90;;;;;;5083843;28;20267;-80
2021/04/28 03:59:02;;;;;;;17.17;12.57;;;4.40;99.90;;;;;;5083130;28;20252;-80
2021/04/28 04:01:28;;;;;;;17.10;11.63;;;4.40;99.90;;;;;;5065501;28;20183;-80
2021/04/28 04:03:54;;;;;;;15.57;11.70;;;4.40;99.90;;;;;;5065344;28;20763;-80
2021/04/28 04:06:19;;;;;;;18.90;12.00;;;4.40;99.90;;;;;;5083408;28;20200;-80
2021/04/28 04:08:45;;;;;;;16.00;11.93;;;4.40;99.90;;;;;;5083632;28;20514;-80
2021/04/28 04:11:11;;;;;;;15.40;10.27;;;4.50;99.90;;;;;;5084569;28;20177;-80
2021/04/28 04:13:37;;;;;;;15.83;11.03;;;4.40;99.90;;;;;;5084865;28;20709;-80
2021/04/28 04:16:02;;;;;;;17.13;11.83;;;4.50;99.90;;;;;;5066765;28;20277;-80
2021/04/28 04:18:28;;;;;;;17.20;11.70;;;4.40;99.90;;;;;;5069036;28;20177;-80
2021/04/28 04:20:54;;;;;;;16.07;10.77;;;4.50;99.90;;;;;;5087146;28;20208;-80
2021/04/28 04:23:19;;;;;;;15.90;10.50;;;4.50;99.90;;;;;;5069950;28;20698;-80
2021/04/28 04:25:45;;;;;;;13.33;10.17;;;4.50;99.90;;;;;;5068509;28;20646;-80
2021/04/28 04:28:11;;;;;;;15.90;10.57;;;4.60;99.90;;;;;;5087967;28;20203;-80
2021/04/28 04:30:37;;;;;;;14.30;10.43;;;4.60;99.90;;;;;;5087231;28;20204;-80
2021/04/28 04:33:03;;;;;;;12.90;10.60;;;4.70;99.90;;;;;;5085761;28;20637;-80
2021/04/28 04:35:28;;;;;;;17.30;11.23;;;4.70;99.90;;;;;;5084689;28;20266;-80
2021/04/28 04:37:54;;;;;;;16.97;11.77;;;4.70;99.90;;;;;;5081309;28;20642;-80
2021/04/28 04:40:20;;;;;;;14.17;10.57;;;4.80;99.90;;;;;;5080988;28;20259;-80
2021/04/28 04:42:45;;;;;;;14.43;9.90;;;4.90;99.90;;;;;;5079718;28;20193;-79
2021/04/28 04:45:11;;;;;;;12.77;10.07;;;4.90;99.90;;;;;;5060377;28;20177;-80
2021/04/28 04:47:38;;;;;;;14.07;10.03;;;5.00;99.90;;;;;;5060183;28;20268;-80
2021/04/28 04:50:06;;;;;;;16.07;9.43;;;5.10;99.90;;;;;;5078711;28;20280;-79
2021/04/28 04:52:32;;;;;;;16.57;9.60;;;5.10;99.90;;;;;;5078542;28;20408;-80
2021/04/28 04:54:59;;;;;;;16.13;9.70;;;5.30;99.90;;;;;;5078561;28;20170;-80
2021/04/28 04:57:26;;;;;;;12.07;10.13;;;5.30;99.90;;;;;;5060205;28;20177;-80
2021/04/28 04:59:51;;;;;;;16.17;10.57;;;5.40;99.90;;;;;;5060685;28;20435;-80
2021/04/28 05:02:17;;;;;;;14.93;10.03;;;5.60;99.90;;;;;;5079546;28;20176;-80
2021/04/28 05:04:42;;;;;;;12.47;9.07;;;5.60;99.90;;;;;;5079012;28;20211;-80
2021/04/28 05:07:08;;;;;;;18.97;9.53;;;5.70;99.90;;;;;;5081311;28;20665;-80
2021/04/28 05:09:34;;;;;;;12.80;9.40;;;5.80;99.90;;;;;;5080477;28;20244;-80
2021/04/28 05:11:59;;;;;;;11.57;9.77;;;5.80;99.90;;;;;;5048980;28;20750;-80
2021/04/28 05:14:25;;;;;;;12.87;9.73;;;5.90;99.90;;;;;;5079969;28;20220;-80
2021/04/28 05:16:50;;;;;;;16.20;10.23;;;5.90;99.90;;;;;;5080757;28;20220;-79
2021/04/28 05:19:16;;;;;;;18.77;9.67;;;6.00;99.90;;;;;;5081392;28;20192;-80
2021/04/28 05:21:42;;;;;;;16.40;11.00;;;6.10;99.90;;;;;;5084295;28;20185;-79
2021/04/28 05:24:08;;;;;;;20.90;11.03;;;6.00;99.90;;;;;;5086716;28;20165;-79
2021/04/28 05:26:34;;;;;;;23.07;10.90;;;6.10;99.90;;;;;;5069877;28;20180;-79
2021/04/28 05:28:59;;;;;;;17.63;10.57;;;6.20;99.90;;;;;;5085142;28;20702;-79
2021/04/28 05:31:25;;;;;;;10.63;8.67;;;6.30;99.90;;;;;;5066841;28;20192;-79
2021/04/28 05:33:51;;;;;;;14.57;8.53;;;6.40;99.90;;;;;;5082559;28;20176;-79
2021/04/28 05:36:16;;;;;;;13.23;8.07;;;6.50;99.90;;;;;;5082153;28;20229;-79
2021/04/28 05:38:42;;;;;;;9.90;7.50;;;6.60;99.90;;;;;;5081099;28;20191;-79
2021/04/28 05:41:08;;;;;;;12.33;8.97;;;6.70;99.90;;;;;;5081513;28;20285;-80
2021/04/28 05:43:34;;;;;;;11.00;8.03;;;6.80;99.90;;;;;;5084706;28;20184;-79
2021/04/28 05:46:01;;;;;;;14.87;8.63;;;6.90;99.90;;;;;;5084768;28;20177;-79
2021/04/28 05:48:27;;;;;;;17.03;8.47;;;7.10;99.90;;;;;;5065753;28;20244;-79
2021/04/28 05:50:53;;;;;;;10.70;7.50;;;7.20;99.90;;;;;;5064230;28;20183;-80
2021/04/28 05:53:18;;;;;;;17.03;8.73;;;7.30;99.90;;;;;;5082822;28;20171;-80
2021/04/28 05:55:44;;;;;;;13.77;8.57;;;7.40;99.90;;;;;;5082738;28;20725;-80
2021/04/28 05:58:10;;;;;;;11.33;7.77;;;7.50;99.90;;;;;;5083039;28;20184;-79
2021/04/28 06:00:36;;;;;;;10.47;8.03;;;7.70;99.90;;;;;;5083134;28;20608;-80
2021/04/28 06:03:03;;;;;;;15.23;9.53;;;7.80;99.90;;;;;;5064532;28;20178;-79
2021/04/28 06:05:29;;;;;;;10.53;7.90;;;7.90;99.90;;;;;;5083474;28;20177;-80
2021/04/28 06:07:54;;;;;;;8.93;7.37;;;8.10;99.90;;;;;;5083074;28;20197;-79
2021/04/28 06:10:20;;;;;;;11.10;7.77;;;8.20;99.90;;;;;;5065441;28;20202;-80
2021/04/28 06:12:47;;;;;;;10.67;7.17;;;8.40;99.90;;;;;;5076507;28;20186;-79
2021/04/28 06:15:15;;;;;;;11.13;7.73;;;8.50;99.90;;;;;;5095016;28;20233;-79
2021/04/28 06:17:41;;;;;;;9.17;7.50;;;8.70;99.90;;;;;;5065636;28;20646;-79
2021/04/28 06:20:10;;;;;;;18.37;8.40;;;8.90;99.90;;;;;;5082327;28;20198;-80
2021/04/28 06:22:36;;;;;;;11.40;7.60;;;9.00;99.90;;;;;;5065019;28;20166;-79
2021/04/28 06:25:02;;;;;;;13.30;6.97;;;9.00;99.90;;;;;;5083138;28;20182;-79
2021/04/28 06:27:28;;;;;;;11.77;6.57;;;9.00;99.90;;;;;;5083816;28;20167;-80
2021/04/28 06:29:53;;;;;;;9.87;6.63;;;9.10;99.90;;;;;;5063819;28;20680;-80
2021/04/28 06:32:19;;;;;;;7.30;6.47;;;9.20;99.90;;;;;;5063816;28;20195;-80
2021/04/28 06:34:45;;;;;;;7.90;6.70;;;9.30;99.90;;;;;;5063582;28;20203;-80
2021/04/28 06:37:11;;;;;;;9.50;6.60;;;9.30;99.90;;;;;;5063878;28;20224;-80
2021/04/28 06:39:37;;;;;;;11.07;6.63;;;9.50;99.90;;;;;;5081926;28;20185;-80
2021/04/28 06:42:02;;;;;;;8.50;6.87;;;9.60;99.90;;;;;;5063294;28;20235;-80
2021/04/28 06:44:28;;;;;;;8.27;6.07;;;9.70;99.90;;;;;;5081295;28;20256;-79
2021/04/28 06:46:54;;;;;;;10.97;6.93;;;9.80;99.90;;;;;;5064137;28;20191;-80
2021/04/28 06:49:20;;;;;;;11.43;7.60;;;9.90;99.90;;;;;;5064186;28;20207;-80
2021/04/28 06:51:45;;;;;;;9.00;6.57;;;10.10;99.90;;;;;;5081654;28;20169;-80
2021/04/28 06:54:11;;;;;;;9.40;6.43;;;10.20;99.90;;;;;;5082714;28;20203;-80
2021/04/28 06:56:41;;;;;;;9.63;6.10;;;10.30;99.90;;;;;;5065630;28;20228;-80
2021/04/28 06:59:08;;;;;;;11.57;7.00;;;10.40;99.90;;;;;;5082793;28;20188;-79
2021/04/28 07:01:33;;;;;;;11.83;6.47;;;10.60;99.90;;;;;;5064777;28;20280;-80
2021/04/28 07:03:59;;;;;;;16.00;6.90;;;10.70;99.90;;;;;;5082373;28;20201;-79
2021/04/28 07:06:25;;;;;;;10.43;6.70;;;10.80;99.90;;;;;;5064195;28;20185;-80
2021/04/28 07:08:50;;;;;;;8.53;6.73;;;10.90;99.90;;;;;;5064348;28;20197;-80
2021/04/28 07:11:16;;;;;;;13.30;6.50;;;11.00;99.90;;;;;;5082747;28;20232;-80
2021/04/28 07:13:42;;;;;;;8.53;6.13;;;11.20;99.90;;;;;;5082242;28;20219;-80
2021/04/28 07:16:07;;;;;;;7.90;6.30;;;11.30;99.90;;;;;;5082112;28;20255;-80
2021/04/28 07:18:33;;;;;;;10.90;6.90;;;11.60;99.90;;;;;;5064408;28;20303;-80
2021/04/28 07:20:59;;;;;;;11.73;6.70;;;11.80;99.90;;;;;;5084359;28;20181;-80
2021/04/28 07:23:24;;;;;;;11.50;7.50;;;12.10;99.90;;;;;;5085494;28;20165;-80
2021/04/28 07:25:50;;;;;;;9.40;7.00;;;12.30;99.90;;;;;;5082567;28;20578;-80
2021/04/28 07:28:16;;;;;;;8.83;7.13;;;12.40;99.90;;;;;;5065294;28;20173;-80
2021/04/28 07:30:43;;;;;;;8.37;7.07;;;12.40;99.90;;;;;;5082575;28;20251;-80
2021/04/28 07:33:09;;;;;;;9.70;7.00;;;12.60;99.90;;;;;;5081998;28;20188;-80
2021/04/28 07:35:34;;;;;;;10.37;7.70;;;12.80;99.90;;;;;;5062995;28;20209;-80
2021/04/28 07:38:00;;;;;;;11.70;7.53;;;12.90;99.90;;;;;;5081148;28;20180;-79
2021/04/28 07:40:26;;;;;;;11.10;6.90;;;13.10;99.90;;;;;;5063735;28;20207;-80
2021/04/28 07:42:52;;;;;;;8.97;7.40;;;13.50;99.90;;;;;;5079097;28;20536;-80
2021/04/28 07:45:19;;;;;;;9.47;7.70;;;14.10;99.90;;;;;;5060620;28;20185;-80
2021/04/28 07:47:45;;;;;;;12.07;7.93;;;14.90;99.90;;;;;;5061423;28;20709;-78
2021/04/28 07:50:12;;;;;;;12.77;7.17;;;15.50;99.90;;;;;;5083232;28;20201;-78
2021/04/28 07:52:38;;;;;;;11.03;7.53;;;16.20;99.90;;;;;;5094321;28;20172;-78
2021/04/28 07:55:05;;;;;;;8.63;7.03;;;16.60;99.90;;;;;;5097904;28;20177;-79
2021/04/28 07:57:31;;;;;;;13.33;8.33;;;17.10;99.90;;;;;;5094387;28;20614;-79
2021/04/28 07:59:57;;;;;;;11.03;8.03;;;17.50;99.90;;;;;;5083978;28;20264;-79
2021/04/28 08:02:23;;;;;;;12.37;8.17;;;17.80;99.70;;;;;;5066024;28;20174;-79
2021/04/28 08:04:48;;;;;;;11.07;7.80;;;18.40;99.90;;;;;;5083700;28;20201;-79
2021/04/28 08:07:14;;;;;;;13.17;8.17;;;18.50;96.20;;;;;;5065543;28;20248;-79
2021/04/28 08:09:41;;;;;;;10.63;7.87;;;18.70;96.00;;;;;;5065744;28;20192;-79
2021/04/28 08:12:07;;;;;;;14.93;8.00;;;19.10;94.20;;;;;;5084058;28;20533;-79
2021/04/28 08:14:33;;;;;;;15.07;8.23;;;19.10;92.40;;;;;;5065300;28;20174;-79
2021/04/28 08:16:59;;;;;;;9.93;7.67;;;19.10;92.60;;;;;;5083032;28;20222;-80
2021/04/28 08:19:25;;;;;;;13.23;7.67;;;19.10;92.70;;;;;;5066177;28;20297;-80
2021/04/28 08:21:55;;;;;;;17.03;8.37;;;18.40;92.50;;;;;;5083679;28;20188;-80
2021/04/28 08:24:21;;;;;;;11.07;7.53;;;18.20;93.30;;;;;;5083302;28;20541;-80
2021/04/28 08:26:47;;;;;;;13.67;8.50;;;17.70;93.60;;;;;;5083504;28;20182;-79
2021/04/28 08:29:13;;;;;;;10.80;7.60;;;17.50;95.50;;;;;;5082884;28;20614;-81
2021/04/28 08:31:39;;;;;;;9.87;7.93;;;17.30;95.40;;;;;;5082945;28;20178;-80
2021/04/28 08:34:05;;;;;;;9.37;7.73;;;17.00;94.70;;;;;;5083578;28;20714;-79
2021/04/28 08:36:32;;;;;;;8.53;7.33;;;16.80;96.60;;;;;;5082957;28;20203;-79
2021/04/28 08:38:58;;;;;;;15.63;7.90;;;16.60;97.80;;;;;;5064867;28;20218;-80
2021/04/28 08:41:23;;;;;;;13.60;8.77;;;16.70;98.20;;;;;;5065348;28;20178;-79
2021/04/28 08:43:49;;;;;;;10.23;7.73;;;17.20;97.80;;;;;;5082419;28;20184;-79
2021/04/28 08:46:14;;;;;;;12.63;8.27;;;18.40;95.30;;;;;;5064239;28;20183;-80
2021/04/28 08:48:40;;;;;;;10.17;7.87;;;19.00;95.40;;;;;;5065871;28;20725;-80
2021/04/28 08:51:06;;;;;;;11.23;7.90;;;19.90;92.60;;;;;;5066713;28;20583;-80
2021/04/28 08:53:33;;;;;;;11.60;7.10;;;20.20;91.60;;;;;;5066331;28;20204;-80
2021/04/28 08:56:06;;;;;;;11.40;8.30;;;20.90;90.60;;;;;;5068946;28;20213;-79
2021/04/28 08:58:32;;;;;;;11.60;7.43;;;21.20;89.50;;;;;;5086705;28;20175;-79
2021/04/28 09:00:58;;;;;;;12.50;7.90;;;21.40;82.60;;;;;;5087504;28;20173;-79
2021/04/28 09:03:44;;;;;;;9.57;7.07;;;21.40;84.80;;;;;;5087198;28;20184;-79
2021/04/28 09:06:35;;;;;;;10.70;7.27;;;21.40;83.60;;;;;;5068405;28;20210;-79
2021/04/28 09:09:04;;;;;;;10.17;7.23;;;21.60;83.80;;;;;;5068064;28;20208;-79
2021/04/28 09:11:34;;;;;;;13.23;7.63;;;21.80;79.10;;;;;;5069155;28;20177;-79
2021/04/28 09:14:14;;;;;;;10.27;7.77;;;21.90;79.00;;;;;;5070162;28;20173;-79
2021/04/28 09:16:42;;;;;;;10.77;7.30;;;22.00;81.60;;;;;;5070813;28;20200;-79
2021/04/28 09:19:19;;;;;;;11.23;7.20;;;22.10;75.80;;;;;;5068727;28;20572;-80
2021/04/28 09:21:51;;;;;;;9.70;7.33;;;22.10;73.90;;;;;;5087091;28;20185;-80
2021/04/28 09:24:18;;;;;;;11.13;7.17;;;21.80;71.10;;;;;;5068574;28;20177;-79
2021/04/28 09:26:44;;;;;;;14.33;7.07;;;21.60;74.10;;;;;;5068690;28;20187;-79
2021/04/28 09:29:14;;;;;;;12.20;7.30;;;21.30;71.50;;;;;;5086624;28;20222;-79
2021/04/28 09:31:53;;;;;;;9.87;7.00;;;21.30;75.30;;;;;;5084702;28;20175;-78
2021/04/28 09:34:27;;;;;;;8.47;6.83;;;21.30;75.40;;;;;;5085068;28;20165;-79
2021/04/28 09:37:14;;;;;;;12.67;7.33;;;21.20;72.20;;;;;;5086075;28;20194;-79
2021/04/28 09:39:49;;;;;;;9.93;7.23;;;21.20;74.40;;;;;;5084918;28;20670;-79
2021/04/28 09:42:16;;;;;;;9.93;7.27;;;21.40;72.70;;;;;;5067517;28;20687;-79
2021/04/28 09:44:48;;;;;;;8.80;7.13;;;21.70;70.70;;;;;;5067849;28;20184;-79
2021/04/28 09:47:22;;;;;;;11.60;7.37;;;21.90;68.80;;;;;;5068011;28;20169;-79
2021/04/28 09:49:59;;;;;;;12.10;7.43;;;21.90;69.80;;;;;;5069113;28;20204;-79
2021/04/28 09:52:44;;;;;;;9.50;7.10;;;22.00;72.60;;;;;;5068216;28;20584;-78
2021/04/28 09:55:15;;;;;;;8.03;6.77;;;22.10;67.60;;;;;;5093973;28;20171;-79
2021/04/28 09:57:45;;;;;;;9.97;6.63;;;22.00;66.80;;;;;;5092741;28;20171;-79
2021/04/28 10:00:22;;;;;;;8.07;6.77;;;21.60;63.00;;;;;;5073576;28;20741;-78
2021/04/28 10:02:52;;;;;;;12.40;7.30;;;21.40;64.50;;;;;;5092749;28;20189;-79
2021/04/28 10:05:36;;;;;;;8.87;6.60;;;21.60;65.20;;;;;;5087568;28;20248;-78
2021/04/28 10:08:24;;;;;;;9.97;7.30;;;21.30;60.20;;;;;;5083022;28;20245;-78
2021/04/28 10:10:52;;;;;;;10.17;6.63;;;20.40;60.60;;;;;;5065018;28;20175;-78
2021/04/28 10:13:18;;;;;;;7.73;6.97;;;19.70;62.40;;;;;;5064746;28;20175;-77
2021/04/28 10:15:44;;;;;;;11.47;7.03;;;19.40;65.40;;;;;;5064496;28;20216;-78
2021/04/28 10:18:12;;;;;;;12.57;6.70;;;19.60;67.30;;;;;;5064091;28;20655;-78
2021/04/28 10:20:41;;;;;;;12.63;6.87;;;20.40;72.60;;;;;;5062965;28;20688;-78
2021/04/28 10:23:12;;;;;;;11.53;7.57;;;21.10;65.70;;;;;;5059503;28;20189;-77
2021/04/28 10:25:39;;;;;;;13.50;6.80;;;21.30;65.80;;;;;;5082103;28;20185;-81
2021/04/28 10:28:07;;;;;;;8.23;6.73;;;20.70;64.60;;;;;;5064378;28;20307;-78
2021/04/28 10:30:45;;;;;;;10.03;6.83;;;19.90;65.00;;;;;;5080851;28;20197;-78
2021/04/28 10:33:20;;;;;;;9.40;7.23;;;19.20;68.90;;;;;;5063195;28;20199;-78
2021/04/28 10:35:47;;;;;;;11.27;7.67;;;18.40;67.80;;;;;;5081743;28;20193;-78
2021/04/28 10:38:13;;;;;;;10.93;7.37;;;17.90;69.20;;;;;;5081327;28;20173;-78
2021/04/28 10:40:39;;;;;;;9.00;7.27;;;17.40;70.40;;;;;;5080727;28;20217;-78
2021/04/28 10:43:10;;;;;;;10.60;7.27;;;17.10;72.30;;;;;;5079880;28;20200;-78
2021/04/28 10:45:37;;;;;;;8.57;7.20;;;17.00;73.70;;;;;;5062038;28;20618;-78
2021/04/28 10:48:11;;;;;;;10.10;8.43;;;16.90;74.80;;;;;;5079878;28;20177;-78
2021/04/28 10:50:42;;;;;;;16.03;7.73;;;16.80;75.30;;;;;;5079991;28;20203;-78
2021/04/28 10:53:28;;;;;;;9.37;7.70;;;16.80;76.50;;;;;;5078397;28;20182;-78
2021/04/28 10:56:12;;;;;;;11.20;7.67;;;16.80;75.60;;;;;;5077884;28;20293;-78
2021/04/28 10:58:40;;;;;;;13.97;8.43;;;16.90;75.70;;;;;;5058489;28;20210;-77
2021/04/28 11:01:11;;;;;;;10.77;8.07;;;17.10;74.80;;;;;;5076713;28;20177;-79
2021/04/28 11:03:40;;;;;;;12.67;8.13;;;17.20;74.40;;;;;;5088528;28;20172;-78
2021/04/28 11:06:21;;;;;;;11.97;7.90;;;17.30;74.70;;;;;;5098642;28;20193;-77
2021/04/28 11:09:10;;;;;;;12.53;8.13;;;17.60;74.10;;;;;;5082288;28;20223;-77
2021/04/28 11:11:37;;;;;;;9.30;7.63;;;18.20;73.90;;;;;;5063143;28;20245;-79
2021/04/28 11:16:48;;;;;;;10.97;8.07;;;20.30;74.80;;;;;;5074799;28;20291;-78
2021/04/28 11:19:14;;;;;;;11.70;7.97;;;21.40;74.80;;;;;;5060611;28;20291;-78
2021/04/28 11:21:40;;;;;;;8.93;7.87;;;21.90;70.90;;;;;;5062492;28;20200;-78
2021/04/28 11:24:13;;;;;;;12.20;8.43;;;22.30;70.20;;;;;;5081090;28;20165;-78
2021/04/28 11:26:48;;;;;;;14.03;8.43;;;22.60;66.80;;;;;;5063041;28;20215;-78
2021/04/28 11:29:14;;;;;;;11.47;8.13;;;22.80;69.00;;;;;;5064338;28;20197;-79
2021/04/28 11:31:44;;;;;;;10.70;8.90;;;22.90;70.90;;;;;;5082640;28;20169;-78
2021/04/28 11:34:34;;;;;;;11.60;8.50;;;22.70;66.40;;;;;;5079656;28;20176;-78
2021/04/28 11:37:09;;;;;;;9.60;7.77;;;21.90;66.80;;;;;;5080055;28;20192;-78
2021/04/28 11:39:44;;;;;;;9.80;7.80;;;21.20;67.70;;;;;;5081744;28;20189;-79
2021/04/28 11:42:12;;;;;;;9.27;7.37;;;20.40;68.20;;;;;;5082904;28;20165;-78
2021/04/28 11:44:44;;;;;;;8.20;7.20;;;20.20;72.20;;;;;;5064494;28;20206;-79
2021/04/28 11:47:12;;;;;;;11.80;7.43;;;20.00;67.70;;;;;;5063732;28;20641;-79
2021/04/28 11:49:50;;;;;;;17.40;8.17;;;20.30;71.80;;;;;;5061540;28;20209;-79
2021/04/28 11:52:17;;;;;;;13.77;8.37;;;20.60;69.10;;;;;;5064313;28;20181;-79
2021/04/28 11:54:44;;;;;;;11.90;8.83;;;20.90;67.20;;;;;;5082921;28;20517;-78
2021/04/28 11:57:10;;;;;;;11.43;7.77;;;20.60;69.30;;;;;;5047685;28;20251;-78
2021/04/28 11:59:38;;;;;;;12.63;7.77;;;20.40;68.50;;;;;;5083162;28;20276;-79
2021/04/28 12:02:11;;;;;;;12.33;6.97;;;20.30;68.10;;;;;;5081825;28;20239;-78
2021/04/28 12:04:38;;;;;;;9.57;6.70;;;20.50;68.40;;;;;;5061823;28;20670;-78
2021/04/28 12:07:05;;;;;;;8.93;6.17;;;20.60;63.70;;;;;;5080082;28;20570;-78
2021/04/28 12:09:49;;;;;;;8.17;6.00;;;21.00;65.80;;;;;;5080001;28;20196;-78
2021/04/28 12:12:17;;;;;;;10.97;6.10;;;21.80;66.40;;;;;;5080878;28;20243;-78
2021/04/28 12:15:06;;;;;;;11.13;6.50;;;21.70;62.70;;;;;;5079109;28;20540;-78
2021/04/28 12:17:34;;;;;;;7.50;5.90;;;20.90;63.30;;;;;;5054994;28;20193;-78
2021/04/28 12:19:59;;;;;;;9.07;6.03;;;20.40;63.20;;;;;;5042285;28;20260;-78
2021/04/28 12:22:27;;;;;;;8.07;5.70;;;20.20;65.10;;;;;;5041941;28;20612;-78
2021/04/28 12:24:58;;;;;;;9.03;6.07;;;20.70;67.20;;;;;;5059873;28;20173;-79
2021/04/28 12:27:29;;;;;;;10.03;6.53;;;21.40;61.60;;;;;;5060081;28;20181;-79
2021/04/28 12:30:00;;;;;;;9.20;6.53;;;22.00;60.70;;;;;;5087030;28;20225;-79
2021/04/28 12:32:34;;;;;;;8.33;6.67;;;22.00;60.20;;;;;;5086207;28;20177;-78
2021/04/28 12:35:16;;;;;;;9.73;6.40;;;21.60;59.30;;;;;;5084503;28;20192;-78
2021/04/28 12:38:09;;;;;;;8.57;6.03;;;21.00;61.20;;;;;;5085725;28;20172;-78
2021/04/28 12:40:34;;;;;;;7.73;6.63;;;20.50;61.20;;;;;;5086175;28;20189;-78
2021/04/28 12:43:00;;;;;;;9.10;5.90;;;20.30;61.60;;;;;;5064373;28;20606;-78
2021/04/28 12:45:28;;;;;;;9.37;7.03;;;20.40;64.10;;;;;;5066537;28;20707;-78
2021/04/28 12:48:16;;;;;;;9.57;6.13;;;20.50;63.30;;;;;;5048495;28;20189;-78